sensor_id;sensor_type;location;lat;lon;timestamp;P1;durP1;ratioP1;P2;durP2;ratioP2
15645;SDS011;7922;43.622;1.476;2023-04-25T00:02:17;4.70;;;3.17;;
15645;SDS011;7922;43.622;1.476;2023-04-25T00:04:42;4.33;;;2.90;;
15645;SDS011;7922;43.622;1.476;2023-04-25T00:07:07;4.47;;;4.07;;
15645;SDS011;7922;43.622;1.476;2023-04-25T00:09:34;4.57;;;3.53;;
15645;SDS011;7922;43.622;1.476;2023-04-25T00:11:59;4.00;;;3.00;;
15645;SDS011;7922;43.622;1.476;2023-04-25T00:14:25;3.40;;;2.60;;
15645;SDS011;7922;43.622;1.476;2023-04-25T00:16:50;4.63;;;2.83;;
15645;SDS011;7922;43.622;1.476;2023-04-25T00:19:15;3.63;;;2.70;;
15645;SDS011;7922;43.622;1.476;2023-04-25T00:21:41;5.27;;;2.60;;
15645;SDS011;7922;43.622;1.476;2023-04-25T00:24:06;3.70;;;2.73;;
15645;SDS011;7922;43.622;1.476;2023-04-25T00:26:33;2.80;;;2.60;;
15645;SDS011;7922;43.622;1.476;2023-04-25T00:28:59;4.27;;;2.53;;
15645;SDS011;7922;43.622;1.476;2023-04-25T00:31:24;3.53;;;2.90;;
15645;SDS011;7922;43.622;1.476;2023-04-25T00:33:49;2.87;;;2.60;;
15645;SDS011;7922;43.622;1.476;2023-04-25T00:36:15;3.23;;;2.90;;
15645;SDS011;7922;43.622;1.476;2023-04-25T00:38:40;3.27;;;2.73;;
15645;SDS011;7922;43.622;1.476;2023-04-25T00:41:06;3.20;;;2.90;;
15645;SDS011;7922;43.622;1.476;2023-04-25T00:43:32;3.43;;;2.70;;
15645;SDS011;7922;43.622;1.476;2023-04-25T00:45:59;4.97;;;2.90;;
15645;SDS011;7922;43.622;1.476;2023-04-25T00:48:25;3.23;;;2.63;;
15645;SDS011;7922;43.622;1.476;2023-04-25T00:50:54;3.47;;;3.17;;
15645;SDS011;7922;43.622;1.476;2023-04-25T00:53:23;4.73;;;2.80;;
15645;SDS011;7922;43.622;1.476;2023-04-25T00:55:49;3.27;;;3.00;;
15645;SDS011;7922;43.622;1.476;2023-04-25T00:58:15;3.37;;;3.07;;
15645;SDS011;7922;43.622;1.476;2023-04-25T01:00:41;4.13;;;3.40;;
15645;SDS011;7922;43.622;1.476;2023-04-25T01:03:07;4.93;;;3.37;;
15645;SDS011;7922;43.622;1.476;2023-04-25T01:05:32;3.43;;;3.13;;
15645;SDS011;7922;43.622;1.476;2023-04-25T01:07:58;4.10;;;3.30;;
15645;SDS011;7922;43.622;1.476;2023-04-25T01:10:24;4.03;;;3.37;;
15645;SDS011;7922;43.622;1.476;2023-04-25T01:12:49;4.67;;;3.00;;
15645;SDS011;7922;43.622;1.476;2023-04-25T01:15:15;3.97;;;2.97;;
15645;SDS011;7922;43.622;1.476;2023-04-25T01:17:40;3.47;;;2.77;;
15645;SDS011;7922;43.622;1.476;2023-04-25T01:20:05;3.93;;;3.53;;
15645;SDS011;7922;43.622;1.476;2023-04-25T01:22:31;4.37;;;3.23;;
15645;SDS011;7922;43.622;1.476;2023-04-25T01:24:57;4.17;;;3.87;;
15645;SDS011;7922;43.622;1.476;2023-04-25T01:27:23;3.73;;;3.10;;
15645;SDS011;7922;43.622;1.476;2023-04-25T01:29:50;3.43;;;3.03;;
15645;SDS011;7922;43.622;1.476;2023-04-25T01:32:15;4.30;;;3.90;;
15645;SDS011;7922;43.622;1.476;2023-04-25T01:34:41;4.07;;;3.67;;
15645;SDS011;7922;43.622;1.476;2023-04-25T01:37:06;4.50;;;3.43;;
15645;SDS011;7922;43.622;1.476;2023-04-25T01:39:31;5.10;;;3.43;;
15645;SDS011;7922;43.622;1.476;2023-04-25T01:41:58;3.83;;;3.53;;
15645;SDS011;7922;43.622;1.476;2023-04-25T01:44:24;3.67;;;3.37;;
15645;SDS011;7922;43.622;1.476;2023-04-25T01:46:50;3.73;;;3.33;;
15645;SDS011;7922;43.622;1.476;2023-04-25T01:49:15;3.97;;;3.57;;
15645;SDS011;7922;43.622;1.476;2023-04-25T01:51:40;3.80;;;3.47;;
15645;SDS011;7922;43.622;1.476;2023-04-25T01:54:06;3.50;;;3.20;;
15645;SDS011;7922;43.622;1.476;2023-04-25T01:56:32;3.63;;;3.33;;
15645;SDS011;7922;43.622;1.476;2023-04-25T01:59:01;3.60;;;3.30;;
15645;SDS011;7922;43.622;1.476;2023-04-25T02:01:26;3.97;;;3.57;;
15645;SDS011;7922;43.622;1.476;2023-04-25T02:03:51;4.00;;;3.40;;
15645;SDS011;7922;43.622;1.476;2023-04-25T02:06:17;5.13;;;3.80;;
15645;SDS011;7922;43.622;1.476;2023-04-25T02:08:42;3.63;;;3.33;;
15645;SDS011;7922;43.622;1.476;2023-04-25T02:11:07;3.20;;;2.90;;
15645;SDS011;7922;43.622;1.476;2023-04-25T02:13:33;3.70;;;3.27;;
15645;SDS011;7922;43.622;1.476;2023-04-25T02:15:58;2.50;;;2.30;;
15645;SDS011;7922;43.622;1.476;2023-04-25T02:18:23;2.63;;;2.43;;
15645;SDS011;7922;43.622;1.476;2023-04-25T02:20:48;2.63;;;1.90;;
15645;SDS011;7922;43.622;1.476;2023-04-25T02:23:14;2.00;;;1.90;;
15645;SDS011;7922;43.622;1.476;2023-04-25T02:25:39;3.30;;;1.90;;
15645;SDS011;7922;43.622;1.476;2023-04-25T02:28:04;2.13;;;1.30;;
15645;SDS011;7922;43.622;1.476;2023-04-25T02:30:30;1.20;;;1.10;;
15645;SDS011;7922;43.622;1.476;2023-04-25T02:32:55;1.40;;;1.30;;
15645;SDS011;7922;43.622;1.476;2023-04-25T02:35:20;1.47;;;1.37;;
15645;SDS011;7922;43.622;1.476;2023-04-25T02:37:46;1.43;;;1.20;;
15645;SDS011;7922;43.622;1.476;2023-04-25T02:40:11;1.37;;;1.23;;
15645;SDS011;7922;43.622;1.476;2023-04-25T02:42:36;0.80;;;0.80;;
15645;SDS011;7922;43.622;1.476;2023-04-25T02:45:02;0.93;;;0.80;;
15645;SDS011;7922;43.622;1.476;2023-04-25T02:47:27;0.80;;;0.80;;
15645;SDS011;7922;43.622;1.476;2023-04-25T02:49:53;0.80;;;0.80;;
15645;SDS011;7922;43.622;1.476;2023-04-25T02:52:18;1.97;;;0.90;;
15645;SDS011;7922;43.622;1.476;2023-04-25T02:54:44;1.50;;;0.80;;
15645;SDS011;7922;43.622;1.476;2023-04-25T02:57:09;0.90;;;0.90;;
15645;SDS011;7922;43.622;1.476;2023-04-25T02:59:34;1.77;;;0.97;;
15645;SDS011;7922;43.622;1.476;2023-04-25T03:02:00;1.10;;;1.00;;
15645;SDS011;7922;43.622;1.476;2023-04-25T03:04:26;0.90;;;0.83;;
15645;SDS011;7922;43.622;1.476;2023-04-25T03:06:51;0.87;;;0.87;;
15645;SDS011;7922;43.622;1.476;2023-04-25T03:09:17;1.30;;;0.93;;
15645;SDS011;7922;43.622;1.476;2023-04-25T03:11:43;1.00;;;0.90;;
15645;SDS011;7922;43.622;1.476;2023-04-25T03:14:09;0.70;;;0.70;;
15645;SDS011;7922;43.622;1.476;2023-04-25T03:16:35;1.43;;;0.80;;
15645;SDS011;7922;43.622;1.476;2023-04-25T03:19:00;0.83;;;0.83;;
15645;SDS011;7922;43.622;1.476;2023-04-25T03:21:26;1.50;;;0.70;;
15645;SDS011;7922;43.622;1.476;2023-04-25T03:23:52;0.80;;;0.77;;
15645;SDS011;7922;43.622;1.476;2023-04-25T03:26:17;0.80;;;0.80;;
15645;SDS011;7922;43.622;1.476;2023-04-25T03:28:43;1.20;;;0.93;;
15645;SDS011;7922;43.622;1.476;2023-04-25T03:31:08;0.60;;;0.60;;
15645;SDS011;7922;43.622;1.476;2023-04-25T03:33:33;1.60;;;0.70;;
15645;SDS011;7922;43.622;1.476;2023-04-25T03:35:58;0.97;;;0.70;;
15645;SDS011;7922;43.622;1.476;2023-04-25T03:38:24;1.20;;;0.80;;
15645;SDS011;7922;43.622;1.476;2023-04-25T03:40:49;0.83;;;0.60;;
15645;SDS011;7922;43.622;1.476;2023-04-25T03:43:15;1.60;;;1.10;;
15645;SDS011;7922;43.622;1.476;2023-04-25T03:45:40;1.20;;;1.00;;
15645;SDS011;7922;43.622;1.476;2023-04-25T03:48:05;1.23;;;0.90;;
15645;SDS011;7922;43.622;1.476;2023-04-25T03:50:31;0.87;;;0.87;;
15645;SDS011;7922;43.622;1.476;2023-04-25T03:52:56;1.93;;;1.40;;
15645;SDS011;7922;43.622;1.476;2023-04-25T03:55:21;1.47;;;0.80;;
15645;SDS011;7922;43.622;1.476;2023-04-25T03:57:46;2.57;;;1.23;;
15645;SDS011;7922;43.622;1.476;2023-04-25T04:00:12;1.00;;;1.00;;
15645;SDS011;7922;43.622;1.476;2023-04-25T04:02:38;0.97;;;0.87;;
15645;SDS011;7922;43.622;1.476;2023-04-25T04:05:03;1.00;;;0.90;;
15645;SDS011;7922;43.622;1.476;2023-04-25T04:07:29;0.90;;;0.90;;
15645;SDS011;7922;43.622;1.476;2023-04-25T04:09:54;0.97;;;0.93;;
15645;SDS011;7922;43.622;1.476;2023-04-25T04:12:19;5.47;;;1.00;;
15645;SDS011;7922;43.622;1.476;2023-04-25T04:14:45;1.10;;;1.00;;
15645;SDS011;7922;43.622;1.476;2023-04-25T04:17:10;1.00;;;0.90;;
15645;SDS011;7922;43.622;1.476;2023-04-25T04:19:35;1.60;;;1.03;;
15645;SDS011;7922;43.622;1.476;2023-04-25T04:22:01;0.97;;;0.90;;
15645;SDS011;7922;43.622;1.476;2023-04-25T04:24:26;1.13;;;1.03;;
15645;SDS011;7922;43.622;1.476;2023-04-25T04:26:51;0.80;;;0.80;;
15645;SDS011;7922;43.622;1.476;2023-04-25T04:29:16;1.30;;;1.20;;
15645;SDS011;7922;43.622;1.476;2023-04-25T04:31:42;1.30;;;1.17;;
15645;SDS011;7922;43.622;1.476;2023-04-25T04:34:07;0.80;;;0.80;;
15645;SDS011;7922;43.622;1.476;2023-04-25T04:36:32;1.10;;;1.00;;
15645;SDS011;7922;43.622;1.476;2023-04-25T04:38:58;0.80;;;0.80;;
15645;SDS011;7922;43.622;1.476;2023-04-25T04:41:23;1.00;;;0.80;;
15645;SDS011;7922;43.622;1.476;2023-04-25T04:43:48;1.40;;;0.83;;
15645;SDS011;7922;43.622;1.476;2023-04-25T04:46:13;1.17;;;1.07;;
15645;SDS011;7922;43.622;1.476;2023-04-25T04:48:39;0.80;;;0.80;;
15645;SDS011;7922;43.622;1.476;2023-04-25T04:51:04;1.37;;;0.87;;
15645;SDS011;7922;43.622;1.476;2023-04-25T04:53:29;1.07;;;0.90;;
15645;SDS011;7922;43.622;1.476;2023-04-25T04:55:54;2.37;;;0.97;;
15645;SDS011;7922;43.622;1.476;2023-04-25T04:58:20;2.10;;;0.90;;
15645;SDS011;7922;43.622;1.476;2023-04-25T05:00:45;1.77;;;1.10;;
15645;SDS011;7922;43.622;1.476;2023-04-25T05:03:10;1.10;;;1.00;;
15645;SDS011;7922;43.622;1.476;2023-04-25T05:05:35;0.90;;;0.90;;
15645;SDS011;7922;43.622;1.476;2023-04-25T05:08:01;1.73;;;1.20;;
15645;SDS011;7922;43.622;1.476;2023-04-25T05:10:26;2.43;;;1.20;;
15645;SDS011;7922;43.622;1.476;2023-04-25T05:12:51;1.03;;;1.00;;
15645;SDS011;7922;43.622;1.476;2023-04-25T05:15:17;1.07;;;0.90;;
15645;SDS011;7922;43.622;1.476;2023-04-25T05:17:42;1.10;;;1.00;;
15645;SDS011;7922;43.622;1.476;2023-04-25T05:20:08;1.63;;;1.20;;
15645;SDS011;7922;43.622;1.476;2023-04-25T05:22:33;1.30;;;1.20;;
15645;SDS011;7922;43.622;1.476;2023-04-25T05:24:59;1.27;;;1.17;;
15645;SDS011;7922;43.622;1.476;2023-04-25T05:27:24;2.70;;;1.27;;
15645;SDS011;7922;43.622;1.476;2023-04-25T05:29:49;1.70;;;1.43;;
15645;SDS011;7922;43.622;1.476;2023-04-25T05:32:15;1.63;;;1.20;;
15645;SDS011;7922;43.622;1.476;2023-04-25T05:34:40;4.07;;;1.80;;
15645;SDS011;7922;43.622;1.476;2023-04-25T05:37:05;1.60;;;1.50;;
15645;SDS011;7922;43.622;1.476;2023-04-25T05:39:30;1.13;;;1.03;;
15645;SDS011;7922;43.622;1.476;2023-04-25T05:41:56;1.50;;;1.40;;
15645;SDS011;7922;43.622;1.476;2023-04-25T05:44:21;1.67;;;1.20;;
15645;SDS011;7922;43.622;1.476;2023-04-25T05:46:46;1.47;;;1.37;;
15645;SDS011;7922;43.622;1.476;2023-04-25T05:49:12;1.40;;;1.30;;
15645;SDS011;7922;43.622;1.476;2023-04-25T05:51:37;2.03;;;1.30;;
15645;SDS011;7922;43.622;1.476;2023-04-25T05:54:03;2.70;;;1.50;;
15645;SDS011;7922;43.622;1.476;2023-04-25T05:56:28;2.13;;;1.40;;
15645;SDS011;7922;43.622;1.476;2023-04-25T05:58:53;2.23;;;1.80;;
15645;SDS011;7922;43.622;1.476;2023-04-25T06:01:19;2.40;;;1.43;;
15645;SDS011;7922;43.622;1.476;2023-04-25T06:03:44;1.90;;;1.40;;
15645;SDS011;7922;43.622;1.476;2023-04-25T06:06:09;1.57;;;1.47;;
15645;SDS011;7922;43.622;1.476;2023-04-25T06:08:34;2.03;;;1.30;;
15645;SDS011;7922;43.622;1.476;2023-04-25T06:11:00;1.37;;;1.27;;
15645;SDS011;7922;43.622;1.476;2023-04-25T06:13:25;1.60;;;1.33;;
15645;SDS011;7922;43.622;1.476;2023-04-25T06:15:51;1.33;;;1.23;;
15645;SDS011;7922;43.622;1.476;2023-04-25T06:18:16;2.50;;;1.40;;
15645;SDS011;7922;43.622;1.476;2023-04-25T06:20:41;1.97;;;1.63;;
15645;SDS011;7922;43.622;1.476;2023-04-25T06:23:07;1.97;;;1.20;;
15645;SDS011;7922;43.622;1.476;2023-04-25T06:25:32;1.73;;;1.20;;
15645;SDS011;7922;43.622;1.476;2023-04-25T06:27:57;1.60;;;1.30;;
15645;SDS011;7922;43.622;1.476;2023-04-25T06:30:23;1.70;;;1.20;;
15645;SDS011;7922;43.622;1.476;2023-04-25T06:32:48;2.07;;;1.67;;
15645;SDS011;7922;43.622;1.476;2023-04-25T06:35:13;1.40;;;1.20;;
15645;SDS011;7922;43.622;1.476;2023-04-25T06:37:39;1.60;;;1.37;;
15645;SDS011;7922;43.622;1.476;2023-04-25T06:40:04;2.03;;;1.30;;
15645;SDS011;7922;43.622;1.476;2023-04-25T06:42:30;1.10;;;1.00;;
15645;SDS011;7922;43.622;1.476;2023-04-25T06:44:55;1.57;;;1.30;;
15645;SDS011;7922;43.622;1.476;2023-04-25T06:47:21;1.30;;;1.20;;
15645;SDS011;7922;43.622;1.476;2023-04-25T06:49:46;1.57;;;1.00;;
15645;SDS011;7922;43.622;1.476;2023-04-25T06:52:11;1.57;;;1.00;;
15645;SDS011;7922;43.622;1.476;2023-04-25T06:54:36;1.73;;;1.00;;
15645;SDS011;7922;43.622;1.476;2023-04-25T06:57:02;1.03;;;0.93;;
15645;SDS011;7922;43.622;1.476;2023-04-25T06:59:27;0.80;;;0.80;;
15645;SDS011;7922;43.622;1.476;2023-04-25T07:01:52;1.20;;;1.10;;
15645;SDS011;7922;43.622;1.476;2023-04-25T07:04:18;1.63;;;1.03;;
15645;SDS011;7922;43.622;1.476;2023-04-25T07:06:43;1.20;;;1.10;;
15645;SDS011;7922;43.622;1.476;2023-04-25T07:09:09;1.33;;;1.23;;
15645;SDS011;7922;43.622;1.476;2023-04-25T07:11:34;0.90;;;0.90;;
15645;SDS011;7922;43.622;1.476;2023-04-25T07:13:59;3.90;;;1.23;;
15645;SDS011;7922;43.622;1.476;2023-04-25T07:16:25;2.17;;;0.97;;
15645;SDS011;7922;43.622;1.476;2023-04-25T07:18:50;1.63;;;0.90;;
15645;SDS011;7922;43.622;1.476;2023-04-25T07:21:15;0.60;;;0.60;;
15645;SDS011;7922;43.622;1.476;2023-04-25T07:23:40;0.87;;;0.67;;
15645;SDS011;7922;43.622;1.476;2023-04-25T07:26:06;0.83;;;0.83;;
15645;SDS011;7922;43.622;1.476;2023-04-25T07:28:31;3.97;;;1.30;;
15645;SDS011;7922;43.622;1.476;2023-04-25T07:30:56;1.10;;;1.00;;
15645;SDS011;7922;43.622;1.476;2023-04-25T07:33:22;1.40;;;1.30;;
15645;SDS011;7922;43.622;1.476;2023-04-25T07:35:47;1.57;;;1.30;;
15645;SDS011;7922;43.622;1.476;2023-04-25T07:38:12;1.33;;;1.23;;
15645;SDS011;7922;43.622;1.476;2023-04-25T07:40:38;1.83;;;1.10;;
15645;SDS011;7922;43.622;1.476;2023-04-25T07:43:03;2.83;;;0.90;;
15645;SDS011;7922;43.622;1.476;2023-04-25T07:45:28;1.20;;;0.90;;
15645;SDS011;7922;43.622;1.476;2023-04-25T07:47:53;1.10;;;1.00;;
15645;SDS011;7922;43.622;1.476;2023-04-25T07:50:19;0.80;;;0.80;;
15645;SDS011;7922;43.622;1.476;2023-04-25T07:52:44;1.00;;;0.60;;
15645;SDS011;7922;43.622;1.476;2023-04-25T07:55:09;1.10;;;1.10;;
15645;SDS011;7922;43.622;1.476;2023-04-25T07:57:34;1.17;;;1.00;;
15645;SDS011;7922;43.622;1.476;2023-04-25T08:00:00;1.30;;;1.03;;
15645;SDS011;7922;43.622;1.476;2023-04-25T08:02:25;1.07;;;0.70;;
15645;SDS011;7922;43.622;1.476;2023-04-25T08:04:50;0.80;;;0.80;;
15645;SDS011;7922;43.622;1.476;2023-04-25T08:07:15;1.40;;;1.30;;
15645;SDS011;7922;43.622;1.476;2023-04-25T08:09:41;1.83;;;0.80;;
15645;SDS011;7922;43.622;1.476;2023-04-25T08:12:06;1.27;;;0.70;;
15645;SDS011;7922;43.622;1.476;2023-04-25T08:14:31;1.43;;;1.10;;
15645;SDS011;7922;43.622;1.476;2023-04-25T08:16:57;2.17;;;0.80;;
15645;SDS011;7922;43.622;1.476;2023-04-25T08:19:22;1.40;;;0.80;;
15645;SDS011;7922;43.622;1.476;2023-04-25T08:21:47;0.80;;;0.80;;
15645;SDS011;7922;43.622;1.476;2023-04-25T08:24:12;1.57;;;0.90;;
15645;SDS011;7922;43.622;1.476;2023-04-25T08:26:38;2.43;;;1.33;;
15645;SDS011;7922;43.622;1.476;2023-04-25T08:29:03;1.20;;;1.10;;
15645;SDS011;7922;43.622;1.476;2023-04-25T08:31:28;1.40;;;1.30;;
15645;SDS011;7922;43.622;1.476;2023-04-25T08:33:53;1.67;;;1.10;;
15645;SDS011;7922;43.622;1.476;2023-04-25T08:36:19;1.30;;;1.13;;
15645;SDS011;7922;43.622;1.476;2023-04-25T08:38:44;2.00;;;1.13;;
15645;SDS011;7922;43.622;1.476;2023-04-25T08:41:09;0.97;;;0.80;;
15645;SDS011;7922;43.622;1.476;2023-04-25T08:43:36;1.23;;;0.70;;
15645;SDS011;7922;43.622;1.476;2023-04-25T08:46:03;0.70;;;0.70;;
15645;SDS011;7922;43.622;1.476;2023-04-25T08:48:31;1.23;;;0.90;;
15645;SDS011;7922;43.622;1.476;2023-04-25T08:50:57;1.50;;;1.40;;
15645;SDS011;7922;43.622;1.476;2023-04-25T08:53:27;1.27;;;1.10;;
15645;SDS011;7922;43.622;1.476;2023-04-25T08:55:54;1.13;;;0.80;;
15645;SDS011;7922;43.622;1.476;2023-04-25T08:58:21;0.60;;;0.60;;
15645;SDS011;7922;43.622;1.476;2023-04-25T09:00:46;0.87;;;0.83;;
15645;SDS011;7922;43.622;1.476;2023-04-25T09:03:13;0.70;;;0.70;;
15645;SDS011;7922;43.622;1.476;2023-04-25T09:05:39;0.80;;;0.80;;
15645;SDS011;7922;43.622;1.476;2023-04-25T09:08:05;1.50;;;0.97;;
15645;SDS011;7922;43.622;1.476;2023-04-25T09:10:30;1.00;;;0.90;;
15645;SDS011;7922;43.622;1.476;2023-04-25T09:13:02;0.97;;;0.60;;
15645;SDS011;7922;43.622;1.476;2023-04-25T09:15:29;0.87;;;0.80;;
15645;SDS011;7922;43.622;1.476;2023-04-25T09:17:57;0.90;;;0.90;;
15645;SDS011;7922;43.622;1.476;2023-04-25T09:20:25;0.70;;;0.70;;
15645;SDS011;7922;43.622;1.476;2023-04-25T09:23:04;1.03;;;0.90;;
15645;SDS011;7922;43.622;1.476;2023-04-25T09:25:34;0.90;;;0.90;;
15645;SDS011;7922;43.622;1.476;2023-04-25T09:28:00;0.70;;;0.70;;
15645;SDS011;7922;43.622;1.476;2023-04-25T09:30:29;1.87;;;0.73;;
15645;SDS011;7922;43.622;1.476;2023-04-25T09:35:34;1.27;;;1.17;;
15645;SDS011;7922;43.622;1.476;2023-04-25T09:38:08;0.80;;;0.80;;
15645;SDS011;7922;43.622;1.476;2023-04-25T09:40:40;0.93;;;0.87;;
15645;SDS011;7922;43.622;1.476;2023-04-25T09:43:09;0.93;;;0.80;;
15645;SDS011;7922;43.622;1.476;2023-04-25T09:45:40;1.00;;;1.00;;
15645;SDS011;7922;43.622;1.476;2023-04-25T09:48:06;0.80;;;0.80;;
15645;SDS011;7922;43.622;1.476;2023-04-25T09:50:31;1.07;;;0.90;;
15645;SDS011;7922;43.622;1.476;2023-04-25T09:53:03;1.17;;;1.00;;
15645;SDS011;7922;43.622;1.476;2023-04-25T09:55:29;1.20;;;1.10;;
15645;SDS011;7922;43.622;1.476;2023-04-25T09:57:56;1.50;;;1.10;;
15645;SDS011;7922;43.622;1.476;2023-04-25T10:00:25;1.10;;;1.10;;
15645;SDS011;7922;43.622;1.476;2023-04-25T10:02:51;1.20;;;0.90;;
15645;SDS011;7922;43.622;1.476;2023-04-25T10:05:17;1.40;;;1.00;;
15645;SDS011;7922;43.622;1.476;2023-04-25T10:07:43;1.53;;;1.27;;
15645;SDS011;7922;43.622;1.476;2023-04-25T10:10:09;1.17;;;1.07;;
15645;SDS011;7922;43.622;1.476;2023-04-25T10:12:37;1.20;;;1.10;;
15645;SDS011;7922;43.622;1.476;2023-04-25T10:15:03;1.50;;;1.40;;
15645;SDS011;7922;43.622;1.476;2023-04-25T10:17:29;2.47;;;1.40;;
15645;SDS011;7922;43.622;1.476;2023-04-25T10:19:56;2.03;;;1.37;;
15645;SDS011;7922;43.622;1.476;2023-04-25T10:25:01;0.80;;;0.80;;
15645;SDS011;7922;43.622;1.476;2023-04-25T10:27:28;1.13;;;1.00;;
15645;SDS011;7922;43.622;1.476;2023-04-25T10:30:00;1.60;;;1.33;;
15645;SDS011;7922;43.622;1.476;2023-04-25T10:32:26;1.93;;;1.10;;
15645;SDS011;7922;43.622;1.476;2023-04-25T10:34:52;1.60;;;0.90;;
15645;SDS011;7922;43.622;1.476;2023-04-25T10:37:18;1.30;;;1.20;;
15645;SDS011;7922;43.622;1.476;2023-04-25T10:39:44;0.93;;;0.93;;
15645;SDS011;7922;43.622;1.476;2023-04-25T10:42:09;0.80;;;0.80;;
15645;SDS011;7922;43.622;1.476;2023-04-25T10:44:34;1.33;;;1.00;;
15645;SDS011;7922;43.622;1.476;2023-04-25T10:47:02;0.90;;;0.80;;
15645;SDS011;7922;43.622;1.476;2023-04-25T10:49:28;0.97;;;0.90;;
15645;SDS011;7922;43.622;1.476;2023-04-25T10:52:16;0.80;;;0.80;;
15645;SDS011;7922;43.622;1.476;2023-04-25T10:54:56;1.30;;;1.20;;
15645;SDS011;7922;43.622;1.476;2023-04-25T11:00:09;2.33;;;1.73;;
15645;SDS011;7922;43.622;1.476;2023-04-25T11:02:45;3.10;;;1.20;;
15645;SDS011;7922;43.622;1.476;2023-04-25T11:05:32;1.73;;;1.63;;
15645;SDS011;7922;43.622;1.476;2023-04-25T11:07:59;1.70;;;1.40;;
15645;SDS011;7922;43.622;1.476;2023-04-25T11:10:25;1.17;;;0.90;;
15645;SDS011;7922;43.622;1.476;2023-04-25T11:12:54;1.20;;;1.10;;
15645;SDS011;7922;43.622;1.476;2023-04-25T11:15:19;1.10;;;1.00;;
15645;SDS011;7922;43.622;1.476;2023-04-25T11:17:45;0.90;;;0.90;;
15645;SDS011;7922;43.622;1.476;2023-04-25T11:20:10;1.13;;;0.97;;
15645;SDS011;7922;43.622;1.476;2023-04-25T11:22:35;2.00;;;1.30;;
15645;SDS011;7922;43.622;1.476;2023-04-25T11:25:05;2.20;;;1.03;;
15645;SDS011;7922;43.622;1.476;2023-04-25T11:27:31;1.43;;;1.10;;
15645;SDS011;7922;43.622;1.476;2023-04-25T11:29:56;1.10;;;1.00;;
15645;SDS011;7922;43.622;1.476;2023-04-25T11:32:22;1.17;;;1.03;;
15645;SDS011;7922;43.622;1.476;2023-04-25T11:34:48;1.30;;;1.20;;
15645;SDS011;7922;43.622;1.476;2023-04-25T11:37:14;1.20;;;1.10;;
15645;SDS011;7922;43.622;1.476;2023-04-25T11:39:42;1.10;;;1.00;;
15645;SDS011;7922;43.622;1.476;2023-04-25T11:42:08;1.07;;;0.97;;
15645;SDS011;7922;43.622;1.476;2023-04-25T11:44:34;1.53;;;1.03;;
15645;SDS011;7922;43.622;1.476;2023-04-25T11:46:59;1.00;;;0.90;;
15645;SDS011;7922;43.622;1.476;2023-04-25T11:49:24;0.80;;;0.80;;
15645;SDS011;7922;43.622;1.476;2023-04-25T11:51:55;0.60;;;0.60;;
15645;SDS011;7922;43.622;1.476;2023-04-25T11:54:20;0.90;;;0.90;;
15645;SDS011;7922;43.622;1.476;2023-04-25T11:56:47;0.70;;;0.60;;
15645;SDS011;7922;43.622;1.476;2023-04-25T11:59:13;1.00;;;0.80;;
15645;SDS011;7922;43.622;1.476;2023-04-25T12:01:39;0.70;;;0.70;;
15645;SDS011;7922;43.622;1.476;2023-04-25T12:06:44;0.77;;;0.67;;
15645;SDS011;7922;43.622;1.476;2023-04-25T12:09:11;1.00;;;0.87;;
15645;SDS011;7922;43.622;1.476;2023-04-25T12:11:43;0.67;;;0.67;;
15645;SDS011;7922;43.622;1.476;2023-04-25T12:14:25;1.10;;;0.80;;
15645;SDS011;7922;43.622;1.476;2023-04-25T12:16:55;1.07;;;0.87;;
15645;SDS011;7922;43.622;1.476;2023-04-25T12:19:22;1.03;;;0.87;;
15645;SDS011;7922;43.622;1.476;2023-04-25T12:21:48;1.57;;;1.07;;
15645;SDS011;7922;43.622;1.476;2023-04-25T12:24:15;1.10;;;0.93;;
15645;SDS011;7922;43.622;1.476;2023-04-25T12:26:52;0.80;;;0.63;;
15645;SDS011;7922;43.622;1.476;2023-04-25T12:29:22;2.43;;;0.90;;
15645;SDS011;7922;43.622;1.476;2023-04-25T12:31:49;2.13;;;1.00;;
15645;SDS011;7922;43.622;1.476;2023-04-25T12:34:15;1.10;;;0.80;;
15645;SDS011;7922;43.622;1.476;2023-04-25T12:36:40;1.20;;;1.10;;
15645;SDS011;7922;43.622;1.476;2023-04-25T12:39:06;1.33;;;1.23;;
15645;SDS011;7922;43.622;1.476;2023-04-25T12:41:31;1.70;;;1.00;;
15645;SDS011;7922;43.622;1.476;2023-04-25T12:43:57;1.17;;;1.07;;
15645;SDS011;7922;43.622;1.476;2023-04-25T12:46:22;1.53;;;0.97;;
15645;SDS011;7922;43.622;1.476;2023-04-25T12:48:47;1.00;;;1.00;;
15645;SDS011;7922;43.622;1.476;2023-04-25T12:51:13;1.10;;;1.00;;
15645;SDS011;7922;43.622;1.476;2023-04-25T12:53:38;1.13;;;1.03;;
15645;SDS011;7922;43.622;1.476;2023-04-25T12:56:04;1.20;;;1.10;;
15645;SDS011;7922;43.622;1.476;2023-04-25T12:58:29;1.23;;;1.00;;
15645;SDS011;7922;43.622;1.476;2023-04-25T13:00:54;1.30;;;1.20;;
15645;SDS011;7922;43.622;1.476;2023-04-25T13:03:20;1.20;;;1.10;;
15645;SDS011;7922;43.622;1.476;2023-04-25T13:05:45;2.40;;;1.13;;
15645;SDS011;7922;43.622;1.476;2023-04-25T13:08:10;1.27;;;1.17;;
15645;SDS011;7922;43.622;1.476;2023-04-25T13:10:35;1.20;;;1.10;;
15645;SDS011;7922;43.622;1.476;2023-04-25T13:13:01;1.30;;;1.20;;
15645;SDS011;7922;43.622;1.476;2023-04-25T13:15:26;1.47;;;1.00;;
15645;SDS011;7922;43.622;1.476;2023-04-25T13:17:52;1.60;;;1.50;;
15645;SDS011;7922;43.622;1.476;2023-04-25T13:20:17;1.40;;;1.30;;
15645;SDS011;7922;43.622;1.476;2023-04-25T13:22:42;1.20;;;1.10;;
15645;SDS011;7922;43.622;1.476;2023-04-25T13:25:07;1.50;;;1.27;;
15645;SDS011;7922;43.622;1.476;2023-04-25T13:27:33;1.00;;;1.00;;
15645;SDS011;7922;43.622;1.476;2023-04-25T13:29:59;1.37;;;1.27;;
15645;SDS011;7922;43.622;1.476;2023-04-25T13:32:25;3.67;;;1.60;;
15645;SDS011;7922;43.622;1.476;2023-04-25T13:34:51;1.13;;;1.10;;
15645;SDS011;7922;43.622;1.476;2023-04-25T13:37:16;1.17;;;0.90;;
15645;SDS011;7922;43.622;1.476;2023-04-25T13:39:41;1.00;;;1.00;;
15645;SDS011;7922;43.622;1.476;2023-04-25T13:42:07;1.10;;;1.00;;
15645;SDS011;7922;43.622;1.476;2023-04-25T13:44:32;1.53;;;0.90;;
15645;SDS011;7922;43.622;1.476;2023-04-25T13:46:57;0.90;;;0.90;;
15645;SDS011;7922;43.622;1.476;2023-04-25T13:49:22;0.73;;;0.73;;
15645;SDS011;7922;43.622;1.476;2023-04-25T13:51:48;0.90;;;0.90;;
15645;SDS011;7922;43.622;1.476;2023-04-25T13:54:13;2.07;;;1.10;;
15645;SDS011;7922;43.622;1.476;2023-04-25T13:56:38;1.10;;;0.93;;
15645;SDS011;7922;43.622;1.476;2023-04-25T13:59:04;1.77;;;1.20;;
15645;SDS011;7922;43.622;1.476;2023-04-25T14:01:29;1.73;;;1.20;;
15645;SDS011;7922;43.622;1.476;2023-04-25T14:03:54;1.67;;;1.23;;
15645;SDS011;7922;43.622;1.476;2023-04-25T14:06:20;1.30;;;1.20;;
15645;SDS011;7922;43.622;1.476;2023-04-25T14:08:45;1.30;;;1.20;;
15645;SDS011;7922;43.622;1.476;2023-04-25T14:11:10;1.13;;;0.87;;
15645;SDS011;7922;43.622;1.476;2023-04-25T14:13:35;1.00;;;0.90;;
15645;SDS011;7922;43.622;1.476;2023-04-25T14:16:01;1.23;;;1.13;;
15645;SDS011;7922;43.622;1.476;2023-04-25T14:18:26;1.97;;;1.03;;
15645;SDS011;7922;43.622;1.476;2023-04-25T14:20:51;1.43;;;1.10;;
15645;SDS011;7922;43.622;1.476;2023-04-25T14:23:16;1.50;;;1.40;;
15645;SDS011;7922;43.622;1.476;2023-04-25T14:25:42;1.53;;;1.10;;
15645;SDS011;7922;43.622;1.476;2023-04-25T14:28:07;1.13;;;1.10;;
15645;SDS011;7922;43.622;1.476;2023-04-25T14:30:32;1.63;;;0.93;;
15645;SDS011;7922;43.622;1.476;2023-04-25T14:32:58;1.37;;;1.10;;
15645;SDS011;7922;43.622;1.476;2023-04-25T14:35:23;1.40;;;1.27;;
15645;SDS011;7922;43.622;1.476;2023-04-25T14:37:48;1.03;;;0.93;;
15645;SDS011;7922;43.622;1.476;2023-04-25T14:40:13;0.90;;;0.90;;
15645;SDS011;7922;43.622;1.476;2023-04-25T14:42:39;1.70;;;1.03;;
15645;SDS011;7922;43.622;1.476;2023-04-25T14:45:05;1.10;;;1.00;;
15645;SDS011;7922;43.622;1.476;2023-04-25T14:47:31;1.20;;;0.87;;
15645;SDS011;7922;43.622;1.476;2023-04-25T14:49:57;0.70;;;0.70;;
15645;SDS011;7922;43.622;1.476;2023-04-25T14:52:22;1.10;;;0.77;;
15645;SDS011;7922;43.622;1.476;2023-04-25T14:54:47;1.33;;;0.90;;
15645;SDS011;7922;43.622;1.476;2023-04-25T14:57:13;1.13;;;1.03;;
15645;SDS011;7922;43.622;1.476;2023-04-25T14:59:38;1.43;;;1.33;;
15645;SDS011;7922;43.622;1.476;2023-04-25T15:02:04;1.53;;;1.10;;
15645;SDS011;7922;43.622;1.476;2023-04-25T15:04:29;1.10;;;1.10;;